sensor_id;sensor_type;location;lat;lon;timestamp;pressure;altitude;pressure_sealevel;temperature;humidity
67818;BME280;54614;47.576;7.524;2022-07-23T00:00:33;98449.53;;;27.06;53.22
67818;BME280;54614;47.576;7.524;2022-07-23T00:02:59;98471.88;;;27.25;52.93
67818;BME280;54614;47.576;7.524;2022-07-23T00:05:25;98488.28;;;27.12;52.97
67818;BME280;54614;47.576;7.524;2022-07-23T00:07:52;98489.38;;;27.22;52.89
67818;BME280;54614;47.576;7.524;2022-07-23T00:10:17;98494.41;;;27.19;52.77
67818;BME280;54614;47.576;7.524;2022-07-23T00:12:43;98485.03;;;27.21;52.81
67818;BME280;54614;47.576;7.524;2022-07-23T00:15:10;98484.09;;;27.27;52.47
67818;BME280;54614;47.576;7.524;2022-07-23T00:17:36;98492.91;;;27.35;52.38
67818;BME280;54614;47.576;7.524;2022-07-23T00:20:03;98494.06;;;27.27;52.45
67818;BME280;54614;47.576;7.524;2022-07-23T00:22:29;98504.06;;;27.26;52.37
67818;BME280;54614;47.576;7.524;2022-07-23T00:24:56;98513.09;;;27.32;52.30
67818;BME280;54614;47.576;7.524;2022-07-23T00:27:22;98508.88;;;27.24;52.63
67818;BME280;54614;47.576;7.524;2022-07-23T00:29:48;98500.19;;;27.34;52.36
67818;BME280;54614;47.576;7.524;2022-07-23T00:32:14;98491.28;;;27.34;52.13
67818;BME280;54614;47.576;7.524;2022-07-23T00:34:40;98488.19;;;27.18;52.40
67818;BME280;54614;47.576;7.524;2022-07-23T00:37:06;98466.38;;;27.32;52.38
67818;BME280;54614;47.576;7.524;2022-07-23T00:39:32;98454.38;;;27.27;52.36
67818;BME280;54614;47.576;7.524;2022-07-23T00:41:58;98459.78;;;27.27;52.35
67818;BME280;54614;47.576;7.524;2022-07-23T00:44:27;98457.44;;;27.19;52.41
67818;BME280;54614;47.576;7.524;2022-07-23T00:46:57;98451.78;;;27.21;52.56
67818;BME280;54614;47.576;7.524;2022-07-23T00:49:28;98457.41;;;27.08;52.53
67818;BME280;54614;47.576;7.524;2022-07-23T00:51:56;98448.28;;;27.20;52.55
67818;BME280;54614;47.576;7.524;2022-07-23T00:54:25;98437.84;;;27.24;52.43
67818;BME280;54614;47.576;7.524;2022-07-23T00:56:52;98441.00;;;27.33;52.20
67818;BME280;54614;47.576;7.524;2022-07-23T00:59:19;98469.31;;;27.30;52.11
67818;BME280;54614;47.576;7.524;2022-07-23T01:01:45;98478.34;;;27.24;52.18
67818;BME280;54614;47.576;7.524;2022-07-23T01:04:13;98480.09;;;27.30;52.35
67818;BME280;54614;47.576;7.524;2022-07-23T01:06:43;98486.56;;;27.29;52.23
67818;BME280;54614;47.576;7.524;2022-07-23T01:09:09;98459.66;;;27.22;52.60
67818;BME280;54614;47.576;7.524;2022-07-23T01:11:37;98422.56;;;27.18;52.56
67818;BME280;54614;47.576;7.524;2022-07-23T01:14:11;98414.00;;;27.21;52.72
67818;BME280;54614;47.576;7.524;2022-07-23T01:16:37;98423.03;;;27.15;52.81
67818;BME280;54614;47.576;7.524;2022-07-23T01:19:03;98424.44;;;27.29;52.65
67818;BME280;54614;47.576;7.524;2022-07-23T01:21:36;98415.41;;;27.23;52.75
67818;BME280;54614;47.576;7.524;2022-07-23T01:24:03;98403.06;;;27.16;52.88
67818;BME280;54614;47.576;7.524;2022-07-23T01:26:29;98398.94;;;27.13;52.84
67818;BME280;54614;47.576;7.524;2022-07-23T01:28:55;98406.94;;;27.20;52.61
67818;BME280;54614;47.576;7.524;2022-07-23T01:31:21;98411.16;;;27.16;52.84
67818;BME280;54614;47.576;7.524;2022-07-23T01:33:48;98418.34;;;27.22;53.24
67818;BME280;54614;47.576;7.524;2022-07-23T01:36:14;98424.09;;;27.25;52.73
67818;BME280;54614;47.576;7.524;2022-07-23T01:38:40;98424.44;;;27.29;52.67
67818;BME280;54614;47.576;7.524;2022-07-23T01:41:06;98418.00;;;27.30;52.73
67818;BME280;54614;47.576;7.524;2022-07-23T01:43:32;98408.13;;;27.24;52.82
67818;BME280;54614;47.576;7.524;2022-07-23T01:45:58;98408.59;;;27.21;52.72
67818;BME280;54614;47.576;7.524;2022-07-23T01:48:24;98413.19;;;27.32;52.74
67818;BME280;54614;47.576;7.524;2022-07-23T01:50:50;98423.41;;;27.30;52.71
67818;BME280;54614;47.576;7.524;2022-07-23T01:53:16;98416.81;;;27.26;52.78
67818;BME280;54614;47.576;7.524;2022-07-23T01:55:42;98424.09;;;27.25;52.75
67818;BME280;54614;47.576;7.524;2022-07-23T01:58:08;98423.75;;;27.22;53.07
67818;BME280;54614;47.576;7.524;2022-07-23T02:00:35;98418.56;;;27.20;53.15
67818;BME280;54614;47.576;7.524;2022-07-23T02:03:01;98414.09;;;27.14;52.95
67818;BME280;54614;47.576;7.524;2022-07-23T02:05:27;98422.22;;;27.26;53.21
67818;BME280;54614;47.576;7.524;2022-07-23T02:07:58;98427.72;;;27.19;53.17
67818;BME280;54614;47.576;7.524;2022-07-23T02:10:25;98431.34;;;27.13;53.40
67818;BME280;54614;47.576;7.524;2022-07-23T02:12:51;98437.34;;;27.15;53.24
67818;BME280;54614;47.576;7.524;2022-07-23T02:15:18;98427.84;;;27.24;52.73
67818;BME280;54614;47.576;7.524;2022-07-23T02:17:44;98431.94;;;27.15;53.11
67818;BME280;54614;47.576;7.524;2022-07-23T02:20:11;98433.47;;;27.11;53.14
67818;BME280;54614;47.576;7.524;2022-07-23T02:22:38;98436.06;;;27.18;53.15
67818;BME280;54614;47.576;7.524;2022-07-23T02:25:06;98425.13;;;27.13;53.17
67818;BME280;54614;47.576;7.524;2022-07-23T02:27:33;98407.88;;;27.14;52.93
67818;BME280;54614;47.576;7.524;2022-07-23T02:29:59;98412.91;;;27.10;53.16
67818;BME280;54614;47.576;7.524;2022-07-23T02:32:26;98412.00;;;27.16;53.00
67818;BME280;54614;47.576;7.524;2022-07-23T02:34:53;98423.59;;;27.05;53.27
67818;BME280;54614;47.576;7.524;2022-07-23T02:37:19;98440.50;;;27.12;53.04
67818;BME280;54614;47.576;7.524;2022-07-23T02:39:45;98465.88;;;27.11;53.22
67818;BME280;54614;47.576;7.524;2022-07-23T02:42:10;98494.63;;;27.17;53.34
67818;BME280;54614;47.576;7.524;2022-07-23T02:44:37;98521.59;;;27.06;53.05
67818;BME280;54614;47.576;7.524;2022-07-23T02:47:03;98525.03;;;27.13;52.93
67818;BME280;54614;47.576;7.524;2022-07-23T02:49:28;98500.13;;;27.11;53.08
67818;BME280;54614;47.576;7.524;2022-07-23T02:51:54;98492.53;;;27.19;52.96
67818;BME280;54614;47.576;7.524;2022-07-23T02:54:20;98502.75;;;27.17;52.96
67818;BME280;54614;47.576;7.524;2022-07-23T02:56:46;98499.44;;;27.15;52.97
67818;BME280;54614;47.576;7.524;2022-07-23T02:59:12;98502.00;;;27.10;53.02
67818;BME280;54614;47.576;7.524;2022-07-23T03:01:38;98506.59;;;27.10;53.03
67818;BME280;54614;47.576;7.524;2022-07-23T03:04:04;98501.56;;;27.13;53.02
67818;BME280;54614;47.576;7.524;2022-07-23T03:06:30;98487.31;;;27.06;53.24
67818;BME280;54614;47.576;7.524;2022-07-23T03:08:56;98487.69;;;27.10;52.78
67818;BME280;54614;47.576;7.524;2022-07-23T03:11:22;98502.50;;;27.19;52.76
67818;BME280;54614;47.576;7.524;2022-07-23T03:13:47;98516.72;;;26.96;53.25
67818;BME280;54614;47.576;7.524;2022-07-23T03:16:13;98539.72;;;27.17;53.04
67818;BME280;54614;47.576;7.524;2022-07-23T03:18:39;98570.09;;;27.12;52.89
67818;BME280;54614;47.576;7.524;2022-07-23T03:21:05;98608.28;;;27.16;53.17
67818;BME280;54614;47.576;7.524;2022-07-23T03:23:31;98596.28;;;27.12;53.24
67818;BME280;54614;47.576;7.524;2022-07-23T03:25:57;98555.41;;;27.08;53.21
67818;BME280;54614;47.576;7.524;2022-07-23T03:28:22;98562.25;;;26.92;53.41
67818;BME280;54614;47.576;7.524;2022-07-23T03:30:48;98527.00;;;26.87;53.52
67818;BME280;54614;47.576;7.524;2022-07-23T03:33:16;98507.97;;;27.01;53.25
67818;BME280;54614;47.576;7.524;2022-07-23T03:35:46;98507.75;;;27.02;53.36
67818;BME280;54614;47.576;7.524;2022-07-23T03:38:14;98492.81;;;27.00;53.23
67818;BME280;54614;47.576;7.524;2022-07-23T03:40:40;98478.50;;;26.99;53.22
67818;BME280;54614;47.576;7.524;2022-07-23T03:43:06;98469.50;;;26.87;53.41
67818;BME280;54614;47.576;7.524;2022-07-23T03:45:32;98464.63;;;26.95;53.38
67818;BME280;54614;47.576;7.524;2022-07-23T03:47:58;98475.03;;;26.92;53.42
67818;BME280;54614;47.576;7.524;2022-07-23T03:50:24;98484.66;;;26.88;53.44
67818;BME280;54614;47.576;7.524;2022-07-23T03:52:51;98505.50;;;26.81;53.83
67818;BME280;54614;47.576;7.524;2022-07-23T03:55:17;98514.19;;;26.83;53.71
67818;BME280;54614;47.576;7.524;2022-07-23T03:57:43;98510.53;;;26.77;53.78
67818;BME280;54614;47.576;7.524;2022-07-23T04:00:10;98516.00;;;26.89;53.47
67818;BME280;54614;47.576;7.524;2022-07-23T04:02:37;98518.69;;;26.89;53.54
67818;BME280;54614;47.576;7.524;2022-07-23T04:05:05;98530.03;;;26.98;53.41
67818;BME280;54614;47.576;7.524;2022-07-23T04:07:31;98534.97;;;27.01;53.33
67818;BME280;54614;47.576;7.524;2022-07-23T04:09:57;98552.63;;;26.96;53.22
67818;BME280;54614;47.576;7.524;2022-07-23T04:12:24;98547.69;;;26.93;53.51
67818;BME280;54614;47.576;7.524;2022-07-23T04:14:50;98542.53;;;26.92;53.65
67818;BME280;54614;47.576;7.524;2022-07-23T04:17:16;98523.25;;;26.88;53.42
67818;BME280;54614;47.576;7.524;2022-07-23T04:19:42;98527.25;;;26.86;53.65
67818;BME280;54614;47.576;7.524;2022-07-23T04:22:12;98545.69;;;26.89;53.38
67818;BME280;54614;47.576;7.524;2022-07-23T04:24:38;98534.66;;;26.90;53.82
67818;BME280;54614;47.576;7.524;2022-07-23T04:27:05;98530.63;;;27.00;53.49
67818;BME280;54614;47.576;7.524;2022-07-23T04:29:31;98560.38;;;26.93;53.41
67818;BME280;54614;47.576;7.524;2022-07-23T04:31:57;98580.53;;;26.90;53.61
67818;BME280;54614;47.576;7.524;2022-07-23T04:34:23;98552.50;;;26.91;53.57
67818;BME280;54614;47.576;7.524;2022-07-23T04:36:52;98539.00;;;26.91;53.67
67818;BME280;54614;47.576;7.524;2022-07-23T04:39:19;98554.47;;;26.84;53.57
67818;BME280;54614;47.576;7.524;2022-07-23T04:41:45;98556.34;;;26.84;53.67
67818;BME280;54614;47.576;7.524;2022-07-23T04:44:11;98564.81;;;26.87;53.68
67818;BME280;54614;47.576;7.524;2022-07-23T04:46:37;98572.44;;;26.90;53.44
67818;BME280;54614;47.576;7.524;2022-07-23T04:49:02;98584.84;;;26.98;53.36
67818;BME280;54614;47.576;7.524;2022-07-23T04:51:28;98588.63;;;26.90;53.43
67818;BME280;54614;47.576;7.524;2022-07-23T04:53:55;98582.88;;;26.87;53.41
67818;BME280;54614;47.576;7.524;2022-07-23T04:56:22;98583.41;;;26.77;53.76
67818;BME280;54614;47.576;7.524;2022-07-23T04:58:48;98572.59;;;26.77;53.64
67818;BME280;54614;47.576;7.524;2022-07-23T05:01:14;98575.75;;;26.74;53.30
67818;BME280;54614;47.576;7.524;2022-07-23T05:03:39;98583.25;;;26.72;53.58
67818;BME280;54614;47.576;7.524;2022-07-23T05:06:05;98578.09;;;26.71;53.65
67818;BME280;54614;47.576;7.524;2022-07-23T05:08:31;98571.88;;;26.70;53.37
67818;BME280;54614;47.576;7.524;2022-07-23T05:10:57;98580.56;;;26.72;53.59
67818;BME280;54614;47.576;7.524;2022-07-23T05:13:23;98576.22;;;26.71;53.43
67818;BME280;54614;47.576;7.524;2022-07-23T05:15:49;98583.63;;;26.76;53.44
67818;BME280;54614;47.576;7.524;2022-07-23T05:18:15;98586.78;;;26.73;53.64
67818;BME280;54614;47.576;7.524;2022-07-23T05:20:41;98588.66;;;26.72;53.50
67818;BME280;54614;47.576;7.524;2022-07-23T05:23:07;98584.31;;;26.71;53.48
67818;BME280;54614;47.576;7.524;2022-07-23T05:25:33;98583.03;;;26.74;53.59
67818;BME280;54614;47.576;7.524;2022-07-23T05:27:59;98591.34;;;26.72;53.32
67818;BME280;54614;47.576;7.524;2022-07-23T05:30:25;98598.84;;;26.70;53.40
67818;BME280;54614;47.576;7.524;2022-07-23T05:32:51;98609.41;;;26.72;53.46
67818;BME280;54614;47.576;7.524;2022-07-23T05:35:17;98606.13;;;26.70;53.58
67818;BME280;54614;47.576;7.524;2022-07-23T05:37:43;98599.06;;;26.69;55.49
67818;BME280;54614;47.576;7.524;2022-07-23T05:40:10;98588.66;;;26.54;55.81
67818;BME280;54614;47.576;7.524;2022-07-23T05:42:39;98605.41;;;26.38;57.05
67818;BME280;54614;47.576;7.524;2022-07-23T05:45:07;98599.59;;;26.41;57.41
67818;BME280;54614;47.576;7.524;2022-07-23T05:47:46;98600.03;;;26.38;57.39
67818;BME280;54614;47.576;7.524;2022-07-23T05:50:13;98603.44;;;26.26;58.02
67818;BME280;54614;47.576;7.524;2022-07-23T05:52:39;98612.25;;;26.15;57.96
67818;BME280;54614;47.576;7.524;2022-07-23T05:55:07;98619.06;;;26.18;58.09
67818;BME280;54614;47.576;7.524;2022-07-23T05:57:34;98613.78;;;26.05;57.90
67818;BME280;54614;47.576;7.524;2022-07-23T06:00:00;98601.56;;;26.02;58.51
67818;BME280;54614;47.576;7.524;2022-07-23T06:02:26;98601.56;;;26.02;58.50
67818;BME280;54614;47.576;7.524;2022-07-23T06:04:52;98605.72;;;25.98;58.63
67818;BME280;54614;47.576;7.524;2022-07-23T06:07:18;98608.34;;;26.11;58.09
67818;BME280;54614;47.576;7.524;2022-07-23T06:09:44;98612.53;;;26.07;58.46
67818;BME280;54614;47.576;7.524;2022-07-23T06:12:09;98617.97;;;26.00;58.91
67818;BME280;54614;47.576;7.524;2022-07-23T06:14:35;98623.75;;;26.04;58.70
67818;BME280;54614;47.576;7.524;2022-07-23T06:17:01;98631.84;;;25.97;58.91
67818;BME280;54614;47.576;7.524;2022-07-23T06:19:27;98627.25;;;26.05;58.53
67818;BME280;54614;47.576;7.524;2022-07-23T06:21:53;98635.81;;;25.95;59.25
67818;BME280;54614;47.576;7.524;2022-07-23T06:24:19;98641.47;;;25.87;59.58
67818;BME280;54614;47.576;7.524;2022-07-23T06:26:45;98641.25;;;25.88;59.50
67818;BME280;54614;47.576;7.524;2022-07-23T06:29:11;98637.47;;;25.96;59.21
67818;BME280;54614;47.576;7.524;2022-07-23T06:31:37;98638.88;;;25.74;60.44
67818;BME280;54614;47.576;7.524;2022-07-23T06:34:03;98644.16;;;25.87;59.86
67818;BME280;54614;47.576;7.524;2022-07-23T06:36:29;98646.69;;;25.44;61.79
67818;BME280;54614;47.576;7.524;2022-07-23T06:38:55;98640.66;;;25.48;61.19
67818;BME280;54614;47.576;7.524;2022-07-23T06:41:21;98650.63;;;24.90;64.14
67818;BME280;54614;47.576;7.524;2022-07-23T06:43:48;98655.28;;;24.30;67.14
67818;BME280;54614;47.576;7.524;2022-07-23T06:46:14;98649.00;;;24.82;64.27
67818;BME280;54614;47.576;7.524;2022-07-23T06:48:40;98667.50;;;24.32;67.42
67818;BME280;54614;47.576;7.524;2022-07-23T06:51:06;98668.34;;;22.85;74.75
67818;BME280;54614;47.576;7.524;2022-07-23T06:53:32;98667.25;;;23.81;69.62
67818;BME280;54614;47.576;7.524;2022-07-23T06:55:58;98677.09;;;23.54;71.87
67818;BME280;54614;47.576;7.524;2022-07-23T06:58:23;98676.50;;;23.11;73.86
67818;BME280;54614;47.576;7.524;2022-07-23T07:00:49;98667.06;;;24.09;69.52
67818;BME280;54614;47.576;7.524;2022-07-23T07:03:17;98669.09;;;24.66;66.87
67818;BME280;54614;47.576;7.524;2022-07-23T07:05:44;98655.38;;;25.01;64.92
67818;BME280;54614;47.576;7.524;2022-07-23T07:08:10;98655.28;;;25.21;63.74
67818;BME280;54614;47.576;7.524;2022-07-23T07:10:35;98646.72;;;25.37;62.96
67818;BME280;54614;47.576;7.524;2022-07-23T07:13:01;98648.75;;;25.48;62.33
67818;BME280;54614;47.576;7.524;2022-07-23T07:15:27;98654.09;;;25.55;61.99
67818;BME280;54614;47.576;7.524;2022-07-23T07:17:53;98654.03;;;25.61;61.95
67818;BME280;54614;47.576;7.524;2022-07-23T07:20:19;98659.63;;;25.66;61.27
67818;BME280;54614;47.576;7.524;2022-07-23T07:22:45;98655.25;;;25.72;60.88
67818;BME280;54614;47.576;7.524;2022-07-23T07:25:11;98668.06;;;25.77;60.86
67818;BME280;54614;47.576;7.524;2022-07-23T07:27:37;98653.34;;;25.79;60.56
67818;BME280;54614;47.576;7.524;2022-07-23T07:30:04;98667.19;;;25.83;60.58
67818;BME280;54614;47.576;7.524;2022-07-23T07:32:31;98685.41;;;25.87;59.69
67818;BME280;54614;47.576;7.524;2022-07-23T07:34:58;98685.19;;;25.89;59.75
67818;BME280;54614;47.576;7.524;2022-07-23T07:37:24;98679.59;;;25.90;59.98
67818;BME280;54614;47.576;7.524;2022-07-23T07:39:50;98676.28;;;25.88;60.40
67818;BME280;54614;47.576;7.524;2022-07-23T07:42:16;98678.94;;;25.95;59.66
67818;BME280;54614;47.576;7.524;2022-07-23T07:44:42;98670.41;;;25.98;59.65
67818;BME280;54614;47.576;7.524;2022-07-23T07:47:07;98670.84;;;25.95;59.60
67818;BME280;54614;47.576;7.524;2022-07-23T07:49:33;98664.19;;;25.97;59.29
67818;BME280;54614;47.576;7.524;2022-07-23T07:51:59;98669.81;;;25.96;59.49
67818;BME280;54614;47.576;7.524;2022-07-23T07:54:25;98676.13;;;26.15;58.90
67818;BME280;54614;47.576;7.524;2022-07-23T07:56:51;98677.59;;;26.11;58.93
67818;BME280;54614;47.576;7.524;2022-07-23T07:59:17;98682.59;;;26.07;59.00
67818;BME280;54614;47.576;7.524;2022-07-23T08:01:42;98697.25;;;26.18;58.54
67818;BME280;54614;47.576;7.524;2022-07-23T08:04:08;98679.81;;;26.20;58.23
67818;BME280;54614;47.576;7.524;2022-07-23T08:06:34;98677.63;;;26.36;57.61
67818;BME280;54614;47.576;7.524;2022-07-23T08:09:00;98685.19;;;26.20;57.75
67818;BME280;54614;47.576;7.524;2022-07-23T08:11:26;98685.03;;;26.15;58.16
67818;BME280;54614;47.576;7.524;2022-07-23T08:13:52;98687.50;;;26.17;58.25
67818;BME280;54614;47.576;7.524;2022-07-23T08:16:18;98677.78;;;26.16;58.14
67818;BME280;54614;47.576;7.524;2022-07-23T08:18:44;98673.81;;;26.18;57.91
67818;BME280;54614;47.576;7.524;2022-07-23T08:21:09;98676.72;;;26.17;57.64
67818;BME280;54614;47.576;7.524;2022-07-23T08:23:36;98673.09;;;26.29;57.46
67818;BME280;54614;47.576;7.524;2022-07-23T08:26:02;98674.78;;;26.24;57.55
67818;BME280;54614;47.576;7.524;2022-07-23T08:28:28;98675.41;;;26.26;57.41
67818;BME280;54614;47.576;7.524;2022-07-23T08:30:54;98677.66;;;26.29;57.25
67818;BME280;54614;47.576;7.524;2022-07-23T08:33:23;98683.06;;;26.29;57.08
67818;BME280;54614;47.576;7.524;2022-07-23T08:35:51;98694.88;;;26.28;57.22
67818;BME280;54614;47.576;7.524;2022-07-23T08:38:21;98693.00;;;26.28;57.32
67818;BME280;54614;47.576;7.524;2022-07-23T08:40:53;98695.50;;;26.30;57.28
67818;BME280;54614;47.576;7.524;2022-07-23T08:43:26;98691.13;;;26.29;57.14
67818;BME280;54614;47.576;7.524;2022-07-23T08:45:55;98697.97;;;26.31;57.05
67818;BME280;54614;47.576;7.524;2022-07-23T08:48:24;98693.44;;;26.32;56.97
67818;BME280;54614;47.576;7.524;2022-07-23T08:50:53;98691.34;;;26.27;56.99
67818;BME280;54614;47.576;7.524;2022-07-23T08:53:21;98703.19;;;26.26;57.18
67818;BME280;54614;47.576;7.524;2022-07-23T08:55:50;98695.94;;;26.27;56.97
67818;BME280;54614;47.576;7.524;2022-07-23T08:58:18;98697.59;;;26.28;56.83
67818;BME280;54614;47.576;7.524;2022-07-23T09:00:45;98692.16;;;26.35;65.28
67818;BME280;54614;47.576;7.524;2022-07-23T09:03:29;98693.84;;;26.29;66.76
67818;BME280;54614;47.576;7.524;2022-07-23T09:05:57;98698.19;;;26.30;63.27
67818;BME280;54614;47.576;7.524;2022-07-23T09:08:33;98696.13;;;26.32;63.50
67818;BME280;54614;47.576;7.524;2022-07-23T09:11:03;98696.31;;;26.30;62.84
67818;BME280;54614;47.576;7.524;2022-07-23T09:13:37;98687.19;;;26.31;61.67
67818;BME280;54614;47.576;7.524;2022-07-23T09:16:16;98687.09;;;26.45;59.91
67818;BME280;54614;47.576;7.524;2022-07-23T09:21:37;98678.72;;;26.53;58.65
67818;BME280;54614;47.576;7.524;2022-07-23T09:29:17;98685.25;;;26.63;57.61
67818;BME280;54614;47.576;7.524;2022-07-23T09:32:02;98684.22;;;26.64;57.59
67818;BME280;54614;47.576;7.524;2022-07-23T09:34:33;98686.59;;;26.54;57.84
67818;BME280;54614;47.576;7.524;2022-07-23T09:37:15;98679.59;;;26.47;57.72
67818;BME280;54614;47.576;7.524;2022-07-23T09:39:43;98685.00;;;26.47;57.70
67818;BME280;54614;47.576;7.524;2022-07-23T09:42:21;98690.00;;;26.43;57.69
67818;BME280;54614;47.576;7.524;2022-07-23T09:44:58;98692.50;;;26.45;57.64
67818;BME280;54614;47.576;7.524;2022-07-23T09:47:31;98692.72;;;26.43;57.67
67818;BME280;54614;47.576;7.524;2022-07-23T09:50:09;98686.28;;;26.44;57.63
67818;BME280;54614;47.576;7.524;2022-07-23T09:52:47;98692.25;;;26.46;57.26
67818;BME280;54614;47.576;7.524;2022-07-23T09:55:17;98693.91;;;26.47;57.39
67818;BME280;54614;47.576;7.524;2022-07-23T09:57:46;98692.25;;;26.46;57.35
67818;BME280;54614;47.576;7.524;2022-07-23T10:00:23;98695.41;;;26.43;57.19
67818;BME280;54614;47.576;7.524;2022-07-23T10:02:51;98691.44;;;26.46;57.32
67818;BME280;54614;47.576;7.524;2022-07-23T10:05:19;98698.72;;;26.45;57.20
67818;BME280;54614;47.576;7.524;2022-07-23T10:07:45;98706.56;;;26.47;57.29
67818;BME280;54614;47.576;7.524;2022-07-23T10:10:13;98703.44;;;26.50;57.00
67818;BME280;54614;47.576;7.524;2022-07-23T10:12:39;98699.09;;;26.49;56.93
67818;BME280;54614;47.576;7.524;2022-07-23T10:15:18;98707.19;;;26.49;56.95
67818;BME280;54614;47.576;7.524;2022-07-23T10:17:44;98709.88;;;26.49;56.77
67818;BME280;54614;47.576;7.524;2022-07-23T10:20:10;98705.75;;;26.46;56.77
67818;BME280;54614;47.576;7.524;2022-07-23T10:23:10;98705.09;;;26.51;56.78
67818;BME280;54614;47.576;7.524;2022-07-23T10:25:55;98705.53;;;26.48;56.79
67818;BME280;54614;47.576;7.524;2022-07-23T10:28:40;98703.66;;;26.48;56.79
67818;BME280;54614;47.576;7.524;2022-07-23T10:32:00;98706.13;;;26.50;56.51
67818;BME280;54614;47.576;7.524;2022-07-23T10:37:54;98705.69;;;26.53;56.50
67818;BME280;54614;47.576;7.524;2022-07-23T10:40:23;98700.31;;;26.53;56.30
67818;BME280;54614;47.576;7.524;2022-07-23T10:42:52;98701.13;;;26.53;56.21
67818;BME280;54614;47.576;7.524;2022-07-23T10:45:29;98709.81;;;26.55;56.38
67818;BME280;54614;47.576;7.524;2022-07-23T10:48:12;98703.59;;;26.55;56.09
67818;BME280;54614;47.576;7.524;2022-07-23T10:50:38;98701.94;;;26.54;56.29
67818;BME280;54614;47.576;7.524;2022-07-23T10:53:13;98701.72;;;26.55;55.92
67818;BME280;54614;47.576;7.524;2022-07-23T10:55:47;98702.34;;;26.57;55.95
67818;BME280;54614;47.576;7.524;2022-07-23T10:58:48;98695.88;;;26.58;56.02
67818;BME280;54614;47.576;7.524;2022-07-23T11:01:41;98702.34;;;26.57;56.10
67818;BME280;54614;47.576;7.524;2022-07-23T11:04:07;98700.84;;;26.61;55.68
67818;BME280;54614;47.576;7.524;2022-07-23T11:09:41;98703.97;;;26.58;55.67
67818;BME280;54614;47.576;7.524;2022-07-23T11:17:29;98700.63;;;26.63;55.61
67818;BME280;54614;47.576;7.524;2022-07-23T11:20:15;98696.88;;;26.64;55.56
67818;BME280;54614;47.576;7.524;2022-07-23T11:27:51;98692.53;;;26.63;55.52
67818;BME280;54614;47.576;7.524;2022-07-23T11:35:36;98689.59;;;26.64;55.54
67818;BME280;54614;47.576;7.524;2022-07-23T11:38:19;98682.34;;;26.65;55.28
67818;BME280;54614;47.576;7.524;2022-07-23T11:40:51;98691.69;;;26.62;55.47
67818;BME280;54614;47.576;7.524;2022-07-23T11:43:18;98685.25;;;26.63;55.08
67818;BME280;54614;47.576;7.524;2022-07-23T11:45:49;98684.00;;;26.66;55.23
67818;BME280;54614;47.576;7.524;2022-07-23T11:48:28;98679.41;;;26.67;55.32
67818;BME280;54614;47.576;7.524;2022-07-23T11:50:56;98680.25;;;26.67;55.12
67818;BME280;54614;47.576;7.524;2022-07-23T11:53:29;98685.63;;;26.67;55.17
67818;BME280;54614;47.576;7.524;2022-07-23T11:56:09;98679.63;;;26.65;55.30
67818;BME280;54614;47.576;7.524;2022-07-23T11:58:36;98687.50;;;26.67;55.40
67818;BME280;54614;47.576;7.524;2022-07-23T12:01:03;98684.81;;;26.67;55.25
67818;BME280;54614;47.576;7.524;2022-07-23T12:03:29;98676.94;;;26.65;55.33
67818;BME280;54614;47.576;7.524;2022-07-23T12:06:00;98682.13;;;26.67;55.13
67818;BME280;54614;47.576;7.524;2022-07-23T12:08:26;98670.50;;;26.66;55.06
67818;BME280;54614;47.576;7.524;2022-07-23T12:10:52;98668.63;;;26.67;55.30
67818;BME280;54614;47.576;7.524;2022-07-23T12:13:20;98670.06;;;26.69;55.05
67818;BME280;54614;47.576;7.524;2022-07-23T12:15:54;98676.50;;;26.68;55.00
67818;BME280;54614;47.576;7.524;2022-07-23T12:18:25;98664.06;;;26.67;54.94
67818;BME280;54614;47.576;7.524;2022-07-23T12:20:57;98669.22;;;26.69;54.96
67818;BME280;54614;47.576;7.524;2022-07-23T12:23:26;98666.31;;;26.70;54.93
67818;BME280;54614;47.576;7.524;2022-07-23T12:25:54;98656.56;;;26.69;54.95
67818;BME280;54614;47.576;7.524;2022-07-23T12:28:31;98661.72;;;26.71;54.75
67818;BME280;54614;47.576;7.524;2022-07-23T12:30:59;98657.38;;;26.70;54.88
67818;BME280;54614;47.576;7.524;2022-07-23T12:33:27;98652.97;;;26.75;54.87
67818;BME280;54614;47.576;7.524;2022-07-23T12:35:57;98656.78;;;26.68;55.12
67818;BME280;54614;47.576;7.524;2022-07-23T12:38:27;98657.44;;;26.63;55.71
67818;BME280;54614;47.576;7.524;2022-07-23T12:40:58;98654.53;;;26.64;55.55
67818;BME280;54614;47.576;7.524;2022-07-23T12:43:31;98654.69;;;26.70;55.50
67818;BME280;54614;47.576;7.524;2022-07-23T12:46:07;98655.28;;;26.72;55.31
67818;BME280;54614;47.576;7.524;2022-07-23T12:48:37;98656.56;;;26.69;55.57
67818;BME280;54614;47.576;7.524;2022-07-23T12:56:27;98656.94;;;26.73;55.72
67818;BME280;54614;47.576;7.524;2022-07-23T13:01:40;98647.50;;;26.82;55.36
67818;BME280;54614;47.576;7.524;2022-07-23T13:04:11;98648.38;;;26.94;54.91
67818;BME280;54614;47.576;7.524;2022-07-23T13:06:40;98655.22;;;26.96;54.83
67818;BME280;54614;47.576;7.524;2022-07-23T13:09:15;98652.84;;;27.07;54.58
67818;BME280;54614;47.576;7.524;2022-07-23T13:11:44;98646.09;;;27.16;54.02
67818;BME280;54614;47.576;7.524;2022-07-23T13:14:11;98648.63;;;27.11;54.19
67818;BME280;54614;47.576;7.524;2022-07-23T13:16:39;98648.88;;;27.09;54.27
67818;BME280;54614;47.576;7.524;2022-07-23T13:19:06;98650.88;;;27.14;54.16
67818;BME280;54614;47.576;7.524;2022-07-23T13:21:33;98643.59;;;27.14;54.21
67818;BME280;54614;47.576;7.524;2022-07-23T13:23:59;98648.19;;;27.14;54.29
67818;BME280;54614;47.576;7.524;2022-07-23T13:26:26;98644.44;;;27.15;54.25
67818;BME280;54614;47.576;7.524;2022-07-23T13:28:52;98639.03;;;27.15;54.17
67818;BME280;54614;47.576;7.524;2022-07-23T13:31:20;98636.09;;;27.16;54.03
67818;BME280;54614;47.576;7.524;2022-07-23T13:33:46;98630.47;;;27.18;54.09
67818;BME280;54614;47.576;7.524;2022-07-23T13:36:12;98638.56;;;27.18;53.95
67818;BME280;54614;47.576;7.524;2022-07-23T13:38:38;98640.22;;;27.19;54.07
67818;BME280;54614;47.576;7.524;2022-07-23T13:41:05;98638.34;;;27.19;54.05
67818;BME280;54614;47.576;7.524;2022-07-23T13:43:32;98636.25;;;27.21;53.89